createdAt,value
2019-05-22T00:01:19.446Z,71.80
2019-05-22T00:06:29.623Z,71.70
2019-05-22T00:11:37.899Z,71.50
2019-05-22T00:16:47.082Z,73.60
2019-05-22T00:22:00.974Z,73.90
2019-05-22T00:27:06.515Z,75.40
2019-05-22T00:32:13.758Z,76.40
2019-05-22T00:37:20.640Z,76.30
2019-05-22T00:42:27.764Z,76.70
2019-05-22T00:47:36.164Z,77.00
2019-05-22T00:52:45.209Z,78.00
2019-05-22T00:58:04.893Z,78.50
2019-05-22T01:03:16.441Z,78.50
2019-05-22T01:08:22.303Z,79.50
2019-05-22T01:13:35.358Z,83.60
2019-05-22T01:18:43.189Z,82.40
2019-05-22T01:23:49.583Z,82.20
2019-05-22T01:28:55.953Z,82.50
2019-05-22T01:34:13.105Z,83.00
2019-05-22T01:39:41.103Z,83.30
2019-05-22T01:45:01.762Z,82.40
2019-05-22T01:49:55.945Z,83.00
2019-05-22T01:55:01.851Z,83.30
2019-05-22T02:00:09.459Z,84.00
2019-05-22T02:05:15.792Z,85.10
2019-05-22T02:10:27.253Z,85.90
2019-05-22T02:15:35.082Z,86.20
2019-05-22T02:20:41.459Z,86.30
2019-05-22T02:25:47.191Z,86.10
2019-05-22T02:30:54.368Z,85.50
2019-05-22T02:36:00.368Z,85.20
2019-05-22T02:41:09.035Z,85.40
2019-05-22T02:46:15.706Z,86.00
2019-05-22T02:51:22.228Z,86.70
2019-05-22T02:56:28.242Z,87.40
2019-05-22T03:01:34.107Z,87.70
2019-05-22T03:06:41.210Z,87.60
2019-05-22T03:11:54.817Z,87.10
2019-05-22T03:17:05.438Z,86.80
2019-05-22T03:22:28.432Z,87.20
2019-05-22T03:27:44.889Z,87.80
2019-05-22T03:32:52.237Z,87.60
2019-05-22T03:37:59.866Z,87.40
2019-05-22T03:43:16.359Z,88.00
2019-05-22T03:48:23.942Z,88.40
2019-05-22T03:53:30.606Z,89.00
2019-05-22T03:58:36.485Z,89.40
2019-05-22T04:03:43.939Z,89.80
2019-05-22T04:08:50.936Z,90.00
2019-05-22T04:13:57.143Z,89.70
2019-05-22T04:19:03.441Z,89.70
2019-05-22T04:24:09.585Z,89.50
2019-05-22T04:29:15.371Z,89.10
2019-05-22T04:34:22.006Z,88.50
2019-05-22T04:39:30.099Z,88.60
2019-05-22T04:44:38.810Z,87.40
2019-05-22T04:49:45.507Z,86.30
2019-05-22T04:54:52.602Z,85.10
2019-05-22T04:59:58.616Z,84.00
2019-05-22T05:05:05.391Z,83.00
2019-05-22T05:10:12.169Z,82.60
2019-05-22T05:15:17.973Z,81.50
2019-05-22T05:20:23.816Z,81.40
2019-05-22T05:25:29.849Z,81.00
2019-05-22T05:30:35.763Z,80.70
2019-05-22T05:35:42.308Z,80.90
2019-05-22T05:40:48.431Z,81.80
2019-05-22T05:45:54.486Z,82.50
2019-05-22T05:51:24.105Z,81.80
2019-05-22T05:56:31.846Z,81.70
2019-05-22T06:01:41.689Z,82.30
2019-05-22T06:07:22.176Z,82.00
2019-05-22T06:12:28.075Z,81.50
2019-05-22T06:18:11.872Z,80.40
2019-05-22T06:24:03.159Z,79.10
2019-05-22T06:29:10.420Z,78.10
2019-05-22T06:34:16.237Z,77.90
2019-05-22T06:39:22.196Z,76.40
2019-05-22T06:44:35.181Z,76.20
2019-05-22T06:49:49.087Z,75.60
2019-05-22T06:54:55.962Z,74.50
2019-05-22T07:00:14.552Z,73.70
2019-05-22T07:05:22.990Z,73.00
2019-05-22T07:10:30.547Z,72.00
2019-05-22T07:15:48.537Z,71.40
2019-05-22T07:20:56.794Z,71.90
2019-05-22T07:26:04.154Z,71.80
2019-05-22T07:31:10.235Z,71.00
2019-05-22T07:36:17.496Z,72.10
2019-05-22T07:41:23.155Z,69.90
2019-05-22T07:46:30.923Z,69.10
2019-05-22T07:51:51.488Z,68.30
2019-05-22T07:56:44.994Z,67.00
2019-05-22T08:01:51.157Z,66.80
2019-05-22T08:06:58.095Z,65.60
2019-05-22T08:12:04.902Z,65.20
2019-05-22T08:17:12.470Z,64.10
2019-05-22T08:22:18.532Z,63.00
2019-05-22T08:27:25.021Z,61.80
2019-05-22T08:32:31.252Z,61.20
2019-05-22T08:37:39.633Z,61.10
2019-05-22T08:42:46.276Z,60.80
2019-05-22T08:47:52.342Z,60.20
2019-05-22T08:52:58.115Z,59.70
2019-05-22T08:58:04.583Z,59.30
2019-05-22T09:03:12.197Z,59.60
2019-05-22T09:08:18.399Z,59.70
2019-05-22T09:13:24.084Z,59.30
2019-05-22T09:18:30.064Z,58.70
2019-05-22T09:23:36.794Z,58.30
2019-05-22T09:28:42.929Z,57.50
2019-05-22T09:33:48.928Z,57.70
2019-05-22T09:38:55.079Z,57.20
2019-05-22T09:44:00.777Z,56.90
2019-05-22T09:49:08.173Z,56.50
2019-05-22T09:54:14.806Z,55.40
2019-05-22T09:59:20.802Z,55.30
2019-05-22T10:04:26.474Z,55.20
2019-05-22T10:09:32.406Z,54.20
2019-05-22T10:14:38.404Z,54.50
2019-05-22T10:19:44.372Z,54.30
2019-05-22T10:24:51.972Z,52.40
2019-05-22T10:29:58.874Z,52.80
2019-05-22T10:35:05.541Z,52.10
2019-05-22T10:40:12.414Z,52.40
2019-05-22T10:45:18.303Z,53.00
2019-05-22T10:50:24.647Z,53.40
2019-05-22T10:55:30.744Z,53.30
2019-05-22T11:00:36.592Z,53.30
2019-05-22T11:05:42.633Z,53.60
2019-05-22T11:10:48.850Z,53.90
2019-05-22T11:15:54.445Z,53.60
2019-05-22T11:21:00.253Z,53.60
2019-05-22T11:26:06.114Z,53.50
2019-05-22T11:31:12.929Z,53.20
2019-05-22T11:36:21.139Z,52.60
2019-05-22T11:41:27.694Z,52.80
2019-05-22T11:46:33.842Z,52.60
2019-05-22T11:51:39.724Z,52.40
2019-05-22T11:56:45.817Z,53.20
2019-05-22T12:01:52.011Z,52.90
2019-05-22T12:06:58.407Z,53.00
2019-05-22T12:12:04.375Z,52.60
2019-05-22T12:17:11.510Z,51.60
2019-05-22T12:22:19.850Z,51.70
2019-05-22T12:27:24.871Z,51.80
2019-05-22T12:32:32.153Z,51.90
2019-05-22T12:37:38.024Z,50.90
2019-05-22T12:42:44.535Z,51.60
2019-05-22T12:47:50.260Z,52.10
2019-05-22T12:52:56.948Z,51.30
2019-05-22T12:58:03.886Z,51.50
2019-05-22T13:03:11.788Z,51.10
2019-05-22T13:08:17.748Z,51.50
2019-05-22T13:13:23.647Z,51.40
2019-05-22T13:18:30.310Z,51.40
2019-05-22T13:23:39.475Z,51.60
2019-05-22T13:28:47.064Z,51.70
2019-05-22T13:33:53.803Z,51.10
2019-05-22T13:38:59.651Z,50.20
2019-05-22T13:44:05.962Z,49.50
2019-05-22T13:49:12.097Z,49.70
2019-05-22T13:54:18.078Z,49.50
2019-05-22T13:59:24.925Z,49.80
2019-05-22T14:04:30.850Z,49.80
2019-05-22T14:09:36.602Z,50.40
2019-05-22T14:14:42.654Z,50.80
2019-05-22T14:19:48.354Z,50.50
2019-05-22T14:24:54.470Z,50.50
2019-05-22T14:30:00.896Z,50.10
2019-05-22T14:35:07.310Z,50.10
2019-05-22T14:40:13.721Z,49.20
2019-05-22T14:45:19.786Z,49.00
2019-05-22T14:50:27.106Z,48.60
2019-05-22T14:55:34.773Z,48.10
2019-05-22T15:00:41.575Z,48.70
2019-05-22T15:05:47.805Z,48.30
2019-05-22T15:10:53.825Z,48.30
2019-05-22T15:15:59.493Z,48.90
2019-05-22T15:21:09.477Z,48.50
2019-05-22T15:26:16.134Z,47.80
2019-05-22T15:31:22.398Z,47.40
2019-05-22T15:36:29.231Z,47.70
2019-05-22T15:41:35.535Z,47.70
2019-05-22T15:46:42.799Z,47.60
2019-05-22T15:51:50.470Z,47.20
2019-05-22T15:56:58.388Z,46.30
2019-05-22T16:02:04.881Z,46.70
2019-05-22T16:07:11.233Z,46.60
2019-05-22T16:12:18.502Z,46.50
2019-05-22T16:17:24.645Z,47.20
2019-05-22T16:22:33.414Z,47.80
2019-05-22T16:27:42.619Z,48.20
2019-05-22T16:32:49.892Z,48.80
2019-05-22T16:37:57.260Z,49.20
2019-05-22T16:43:03.045Z,49.30
2019-05-22T16:48:26.070Z,49.80
2019-05-22T16:53:19.494Z,49.70
2019-05-22T16:58:25.567Z,50.40
2019-05-22T17:03:32.098Z,50.20
2019-05-22T17:08:38.021Z,50.50
2019-05-22T17:13:45.182Z,50.60
2019-05-22T17:18:50.858Z,50.70
2019-05-22T17:23:57.295Z,50.90
2019-05-22T17:29:03.335Z,51.50
2019-05-22T17:34:28.588Z,51.70
2019-05-22T17:39:34.727Z,51.50
2019-05-22T17:44:42.847Z,51.70
2019-05-22T17:49:50.883Z,52.30
2019-05-22T17:54:56.656Z,52.40
2019-05-22T18:00:04.134Z,52.40
2019-05-22T18:05:11.131Z,52.70
2019-05-22T18:10:17.031Z,52.80
2019-05-22T18:15:23.252Z,53.10
2019-05-22T18:20:41.759Z,53.30
2019-05-22T18:25:37.409Z,53.50
2019-05-22T18:30:43.824Z,53.50
2019-05-22T18:35:50.023Z,54.40
2019-05-22T18:40:55.996Z,53.60
2019-05-22T18:46:02.108Z,53.40
2019-05-22T18:51:09.011Z,53.40
2019-05-22T18:56:15.424Z,53.40
2019-05-22T19:01:21.507Z,53.80
2019-05-22T19:06:30.526Z,54.10
2019-05-22T19:11:35.647Z,54.50
2019-05-22T19:16:41.405Z,55.30
2019-05-22T19:21:47.621Z,55.40
2019-05-22T19:26:53.712Z,55.90
2019-05-22T19:31:59.298Z,56.40
2019-05-22T19:37:05.171Z,56.70
2019-05-22T19:42:10.854Z,56.90
2019-05-22T19:47:17.354Z,57.00
2019-05-22T19:52:40.349Z,57.00
2019-05-22T19:57:30.943Z,57.30
2019-05-22T20:02:58.443Z,57.60
2019-05-22T20:08:06.253Z,57.80
2019-05-22T20:13:12.940Z,58.00
2019-05-22T20:18:18.869Z,58.50
2019-05-22T20:23:35.833Z,58.90
2019-05-22T20:28:36.942Z,59.30
2019-05-22T20:33:42.679Z,59.50
2019-05-22T20:38:48.682Z,59.90
2019-05-22T20:43:54.559Z,60.00
2019-05-22T20:49:01.039Z,60.60
2019-05-22T20:54:08.745Z,60.80
2019-05-22T20:59:18.478Z,61.10
2019-05-22T21:04:27.336Z,61.30
2019-05-22T21:09:35.088Z,61.70
2019-05-22T21:14:51.236Z,62.00
2019-05-22T21:20:00.799Z,62.40
2019-05-22T21:25:09.483Z,62.80
2019-05-22T21:30:16.323Z,63.50
2019-05-22T21:35:23.874Z,64.00
2019-05-22T21:40:29.787Z,64.40
2019-05-22T21:45:36.823Z,65.00
2019-05-22T21:50:43.400Z,66.00
2019-05-22T21:56:03.541Z,67.00
2019-05-22T22:01:24.219Z,67.90
2019-05-22T22:06:33.361Z,68.10
2019-05-22T22:11:39.778Z,69.20
2019-05-22T22:16:46.945Z,69.50
2019-05-22T22:21:52.734Z,70.40
2019-05-22T22:26:58.753Z,71.50
2019-05-22T22:32:06.071Z,71.70
2019-05-22T22:37:13.261Z,72.30
2019-05-22T22:42:22.355Z,73.00
2019-05-22T22:47:47.462Z,73.20
2019-05-22T22:52:55.128Z,73.50
2019-05-22T22:58:16.007Z,74.30
2019-05-22T23:03:13.011Z,75.00
2019-05-22T23:08:24.782Z,75.10
2019-05-22T23:13:32.003Z,75.40
2019-05-22T23:19:28.825Z,75.90
2019-05-22T23:24:37.998Z,76.50
2019-05-22T23:29:45.246Z,77.10
2019-05-22T23:34:52.167Z,77.30
2019-05-22T23:39:59.352Z,77.80
2019-05-22T23:45:10.532Z,78.00
2019-05-22T23:50:17.269Z,78.60
2019-05-22T23:55:23.431Z,78.70
